Jamaica, NY (11436)

2:18 PM EDT on August 02, 2015 (GMT -0400)
Addisleigh Park | | Change Station
CLOSE
Current Station
Personal Weather Station
Location: New York, NY
Elevation: 36 ft
Nearby Weather Stations

Elev 36 ft 40.70 °N, 73.77 °W | Updated 13 seconds ago

Partly Cloudy
Partly Cloudy
88.5 °F
Feels Like 87 °F
N
3.6
Wind Variable Wind from East
Gusts 4.9 mph

Today
High -- | Low -- °F
--% Chance of Precip.
Yesterday
High -- | Low -- °F
Precip. -- in
5:52 AM 8:09 PM
Waning Gibbous, 92% visible
Pressure 29.92 in
Visibility 10.0 miles
Clouds Few 7000 ft
Scattered Clouds 25000 ft
Heat Index 87 °F
Dew Point 57 °F
Humidity 35%
Rainfall 0.00 in
Snow Depth Not available.
UV 8.0 out of 12
Pollen 7.50 out of 12
Air Quality Not available.
Flu Activity Not available.
METAR KJFK 021751Z 16010KT 10SM FEW070 SCT250 30/13 A2992 RMK AO2 SLP132 T03000133 10306 20256 58007 $

More Conditions Fewer Conditions

Pressure 29.92 in
Visibility 10.0 miles
Clouds Few 7000 ft
Scattered Clouds 25000 ft
Heat Index 87 °F
Dew Point 57 °F
Humidity 35%
Rainfall 0.00 in
Snow Depth Not available.
UV 8.0 out of 12
Pollen 7.50 out of 12
Air Quality Not available.
Flu Activity Not available.
METAR KJFK 021751Z 16010KT 10SM FEW070 SCT250 30/13 A2992 RMK AO2 SLP132 T03000133 10306 20256 58007 $

More Conditions Fewer Conditions

10-Day Weather Forecast

×

Almanac

Astronomy

Aug. 02, 2015 Rise Set
Actual Time
Civil Twilight
Nautical Twilight
Astronomical Twilight
Moon
Length of Visible Light
Length of Day
Tomorrow will be .
, % of the Moon is Illuminated

Today's Extremes

State Highs State Lows

Community

WunderPhotos

Upload Photos

1,843,330 photos uploaded!

WunderBlogs® & News

Nearby

Air Quality

  Air Quality AQ Index Pollutant
Not available.

Snow Depth

Station Depth Elevation

Earthquake Activity

City Distance Mag. Time & Date
Minimum magnitude displayed is 2.5.

Coastal Water Temperatures

Place Temperature

Stations

Nearby Weather Stations

Station Location Temp. Windchill Dew Point Humidity Wind Precip. Elev Updated Type